sensor_id;sensor_type;location;lat;lon;timestamp;P1;durP1;ratioP1;P2;durP2;ratioP2
4272;SDS011;63887;53.656;9.810;2022-10-31T00:00:05;49.17;;;32.20;;
4272;SDS011;63887;53.656;9.810;2022-10-31T00:02:33;46.90;;;30.93;;
4272;SDS011;63887;53.656;9.810;2022-10-31T00:04:59;46.03;;;30.47;;
4272;SDS011;63887;53.656;9.810;2022-10-31T00:07:27;54.67;;;30.40;;
4272;SDS011;63887;53.656;9.810;2022-10-31T00:09:53;42.80;;;29.00;;
4272;SDS011;63887;53.656;9.810;2022-10-31T00:12:20;45.80;;;30.73;;
4272;SDS011;63887;53.656;9.810;2022-10-31T00:14:46;48.13;;;31.73;;
4272;SDS011;63887;53.656;9.810;2022-10-31T00:17:13;42.73;;;29.63;;
4272;SDS011;63887;53.656;9.810;2022-10-31T00:19:39;50.77;;;32.30;;
4272;SDS011;63887;53.656;9.810;2022-10-31T00:22:05;77.80;;;33.10;;
4272;SDS011;63887;53.656;9.810;2022-10-31T00:24:33;52.30;;;30.20;;
4272;SDS011;63887;53.656;9.810;2022-10-31T00:27:00;51.43;;;33.07;;
4272;SDS011;63887;53.656;9.810;2022-10-31T00:29:26;45.30;;;31.87;;
4272;SDS011;63887;53.656;9.810;2022-10-31T00:31:52;51.40;;;31.50;;
4272;SDS011;63887;53.656;9.810;2022-10-31T00:34:19;48.40;;;32.30;;
4272;SDS011;63887;53.656;9.810;2022-10-31T00:36:45;50.03;;;31.23;;
4272;SDS011;63887;53.656;9.810;2022-10-31T00:39:12;54.80;;;32.07;;
4272;SDS011;63887;53.656;9.810;2022-10-31T00:41:39;43.77;;;31.77;;
4272;SDS011;63887;53.656;9.810;2022-10-31T00:44:06;51.70;;;31.00;;
4272;SDS011;63887;53.656;9.810;2022-10-31T00:46:33;50.47;;;31.10;;
4272;SDS011;63887;53.656;9.810;2022-10-31T00:48:59;46.03;;;30.63;;
4272;SDS011;63887;53.656;9.810;2022-10-31T00:51:26;59.97;;;31.03;;
4272;SDS011;63887;53.656;9.810;2022-10-31T00:53:52;51.77;;;32.83;;
4272;SDS011;63887;53.656;9.810;2022-10-31T00:56:19;64.77;;;30.63;;
4272;SDS011;63887;53.656;9.810;2022-10-31T00:58:46;51.90;;;30.27;;
4272;SDS011;63887;53.656;9.810;2022-10-31T01:01:13;59.50;;;29.83;;
4272;SDS011;63887;53.656;9.810;2022-10-31T01:03:39;55.10;;;32.87;;
4272;SDS011;63887;53.656;9.810;2022-10-31T01:06:07;52.13;;;31.33;;
4272;SDS011;63887;53.656;9.810;2022-10-31T01:08:34;53.37;;;28.80;;
4272;SDS011;63887;53.656;9.810;2022-10-31T01:11:03;48.60;;;29.70;;
4272;SDS011;63887;53.656;9.810;2022-10-31T01:13:32;50.90;;;29.57;;
4272;SDS011;63887;53.656;9.810;2022-10-31T01:16:00;44.60;;;30.60;;
4272;SDS011;63887;53.656;9.810;2022-10-31T01:18:28;47.63;;;29.10;;
4272;SDS011;63887;53.656;9.810;2022-10-31T01:20:59;47.30;;;30.70;;
4272;SDS011;63887;53.656;9.810;2022-10-31T01:23:26;60.87;;;31.20;;
4272;SDS011;63887;53.656;9.810;2022-10-31T01:26:00;58.93;;;33.53;;
4272;SDS011;63887;53.656;9.810;2022-10-31T01:28:31;51.63;;;32.03;;
4272;SDS011;63887;53.656;9.810;2022-10-31T01:31:03;55.27;;;30.93;;
4272;SDS011;63887;53.656;9.810;2022-10-31T01:33:31;37.50;;;27.43;;
4272;SDS011;63887;53.656;9.810;2022-10-31T01:35:57;51.37;;;31.43;;
4272;SDS011;63887;53.656;9.810;2022-10-31T01:38:24;55.10;;;29.97;;
4272;SDS011;63887;53.656;9.810;2022-10-31T01:40:51;63.07;;;32.30;;
4272;SDS011;63887;53.656;9.810;2022-10-31T01:43:18;42.93;;;30.00;;
4272;SDS011;63887;53.656;9.810;2022-10-31T01:45:46;58.63;;;30.87;;
4272;SDS011;63887;53.656;9.810;2022-10-31T01:48:19;51.57;;;31.97;;
4272;SDS011;63887;53.656;9.810;2022-10-31T01:50:49;56.40;;;32.77;;
4272;SDS011;63887;53.656;9.810;2022-10-31T01:53:20;77.67;;;36.90;;
4272;SDS011;63887;53.656;9.810;2022-10-31T01:55:47;88.93;;;42.47;;
4272;SDS011;63887;53.656;9.810;2022-10-31T01:58:14;101.70;;;44.17;;
4272;SDS011;63887;53.656;9.810;2022-10-31T02:00:46;85.40;;;38.47;;
4272;SDS011;63887;53.656;9.810;2022-10-31T02:03:19;94.90;;;44.43;;
4272;SDS011;63887;53.656;9.810;2022-10-31T02:05:46;98.53;;;46.37;;
4272;SDS011;63887;53.656;9.810;2022-10-31T02:08:14;91.40;;;41.20;;
4272;SDS011;63887;53.656;9.810;2022-10-31T02:10:44;101.87;;;45.87;;
4272;SDS011;63887;53.656;9.810;2022-10-31T02:13:11;97.30;;;43.77;;
4272;SDS011;63887;53.656;9.810;2022-10-31T02:15:39;97.83;;;43.80;;
4272;SDS011;63887;53.656;9.810;2022-10-31T02:18:08;116.33;;;46.47;;
4272;SDS011;63887;53.656;9.810;2022-10-31T02:20:39;104.03;;;44.40;;
4272;SDS011;63887;53.656;9.810;2022-10-31T02:23:23;99.50;;;44.80;;
4272;SDS011;63887;53.656;9.810;2022-10-31T02:26:14;113.93;;;47.90;;
4272;SDS011;63887;53.656;9.810;2022-10-31T02:29:21;107.90;;;46.60;;
4272;SDS011;63887;53.656;9.810;2022-10-31T02:32:16;102.20;;;45.87;;
4272;SDS011;63887;53.656;9.810;2022-10-31T02:34:48;95.30;;;45.57;;
4272;SDS011;63887;53.656;9.810;2022-10-31T02:37:24;117.97;;;45.60;;
4272;SDS011;63887;53.656;9.810;2022-10-31T02:39:54;112.17;;;46.23;;
4272;SDS011;63887;53.656;9.810;2022-10-31T02:42:29;137.63;;;50.13;;
4272;SDS011;63887;53.656;9.810;2022-10-31T02:45:00;116.77;;;49.20;;
4272;SDS011;63887;53.656;9.810;2022-10-31T02:47:36;120.20;;;45.07;;
4272;SDS011;63887;53.656;9.810;2022-10-31T02:50:04;131.70;;;50.00;;
4272;SDS011;63887;53.656;9.810;2022-10-31T02:52:35;131.20;;;47.97;;
4272;SDS011;63887;53.656;9.810;2022-10-31T02:55:09;113.50;;;45.70;;
4272;SDS011;63887;53.656;9.810;2022-10-31T02:57:37;112.47;;;46.97;;
4272;SDS011;63887;53.656;9.810;2022-10-31T03:00:07;125.30;;;51.80;;
4272;SDS011;63887;53.656;9.810;2022-10-31T03:02:42;115.10;;;46.50;;
4272;SDS011;63887;53.656;9.810;2022-10-31T03:05:23;124.47;;;46.87;;
4272;SDS011;63887;53.656;9.810;2022-10-31T03:08:01;120.27;;;49.00;;
4272;SDS011;63887;53.656;9.810;2022-10-31T03:10:39;125.53;;;47.40;;
4272;SDS011;63887;53.656;9.810;2022-10-31T03:13:10;110.47;;;47.43;;
4272;SDS011;63887;53.656;9.810;2022-10-31T03:15:45;118.67;;;49.20;;
4272;SDS011;63887;53.656;9.810;2022-10-31T03:18:17;120.47;;;46.30;;
4272;SDS011;63887;53.656;9.810;2022-10-31T03:20:52;142.30;;;50.20;;
4272;SDS011;63887;53.656;9.810;2022-10-31T03:23:22;142.37;;;49.37;;
4272;SDS011;63887;53.656;9.810;2022-10-31T03:25:50;123.23;;;47.07;;
4272;SDS011;63887;53.656;9.810;2022-10-31T03:28:21;125.13;;;48.80;;
4272;SDS011;63887;53.656;9.810;2022-10-31T03:30:54;106.30;;;44.43;;
4272;SDS011;63887;53.656;9.810;2022-10-31T03:33:26;117.30;;;45.50;;
4272;SDS011;63887;53.656;9.810;2022-10-31T03:35:55;136.90;;;49.00;;
4272;SDS011;63887;53.656;9.810;2022-10-31T03:38:26;117.23;;;45.87;;
4272;SDS011;63887;53.656;9.810;2022-10-31T03:40:55;126.90;;;50.27;;
4272;SDS011;63887;53.656;9.810;2022-10-31T03:43:24;130.10;;;49.50;;
4272;SDS011;63887;53.656;9.810;2022-10-31T03:45:55;140.60;;;53.00;;
4272;SDS011;63887;53.656;9.810;2022-10-31T03:48:22;119.70;;;47.30;;
4272;SDS011;63887;53.656;9.810;2022-10-31T03:50:52;128.83;;;47.40;;
4272;SDS011;63887;53.656;9.810;2022-10-31T03:53:29;115.73;;;47.90;;
4272;SDS011;63887;53.656;9.810;2022-10-31T03:55:59;114.03;;;45.57;;
4272;SDS011;63887;53.656;9.810;2022-10-31T03:58:29;132.10;;;53.00;;
4272;SDS011;63887;53.656;9.810;2022-10-31T04:01:02;119.27;;;45.03;;
4272;SDS011;63887;53.656;9.810;2022-10-31T04:03:32;135.40;;;45.87;;
4272;SDS011;63887;53.656;9.810;2022-10-31T04:06:02;127.20;;;49.10;;
4272;SDS011;63887;53.656;9.810;2022-10-31T04:08:32;139.20;;;47.57;;
4272;SDS011;63887;53.656;9.810;2022-10-31T04:11:05;130.53;;;48.90;;
4272;SDS011;63887;53.656;9.810;2022-10-31T04:13:34;128.17;;;49.10;;
4272;SDS011;63887;53.656;9.810;2022-10-31T04:16:04;132.47;;;48.37;;
4272;SDS011;63887;53.656;9.810;2022-10-31T04:18:32;131.57;;;52.03;;
4272;SDS011;63887;53.656;9.810;2022-10-31T04:20:59;126.57;;;50.07;;
4272;SDS011;63887;53.656;9.810;2022-10-31T04:23:28;129.60;;;47.00;;
4272;SDS011;63887;53.656;9.810;2022-10-31T04:25:55;144.83;;;50.80;;
4272;SDS011;63887;53.656;9.810;2022-10-31T04:28:22;130.27;;;50.23;;
4272;SDS011;63887;53.656;9.810;2022-10-31T04:30:48;112.27;;;47.40;;
4272;SDS011;63887;53.656;9.810;2022-10-31T04:33:15;146.90;;;51.27;;
4272;SDS011;63887;53.656;9.810;2022-10-31T04:35:42;161.47;;;54.43;;
4272;SDS011;63887;53.656;9.810;2022-10-31T04:38:10;134.93;;;50.60;;
4272;SDS011;63887;53.656;9.810;2022-10-31T04:40:36;156.43;;;52.87;;
4272;SDS011;63887;53.656;9.810;2022-10-31T04:43:03;134.70;;;54.53;;
4272;SDS011;63887;53.656;9.810;2022-10-31T04:45:29;181.83;;;57.17;;
4272;SDS011;63887;53.656;9.810;2022-10-31T04:47:55;141.00;;;53.90;;
4272;SDS011;63887;53.656;9.810;2022-10-31T04:50:22;178.30;;;54.30;;
4272;SDS011;63887;53.656;9.810;2022-10-31T04:52:48;175.57;;;55.73;;
4272;SDS011;63887;53.656;9.810;2022-10-31T04:55:16;175.13;;;53.37;;
4272;SDS011;63887;53.656;9.810;2022-10-31T04:57:43;159.07;;;51.57;;
4272;SDS011;63887;53.656;9.810;2022-10-31T05:00:12;194.33;;;55.43;;
4272;SDS011;63887;53.656;9.810;2022-10-31T05:02:43;194.53;;;53.10;;
4272;SDS011;63887;53.656;9.810;2022-10-31T05:05:10;179.70;;;53.50;;
4272;SDS011;63887;53.656;9.810;2022-10-31T05:07:38;173.73;;;55.60;;
4272;SDS011;63887;53.656;9.810;2022-10-31T05:10:05;165.83;;;54.90;;
4272;SDS011;63887;53.656;9.810;2022-10-31T05:12:33;171.80;;;55.40;;
4272;SDS011;63887;53.656;9.810;2022-10-31T05:15:00;161.13;;;51.73;;
4272;SDS011;63887;53.656;9.810;2022-10-31T05:17:26;192.77;;;57.90;;
4272;SDS011;63887;53.656;9.810;2022-10-31T05:19:53;164.27;;;52.40;;
4272;SDS011;63887;53.656;9.810;2022-10-31T05:22:19;148.83;;;53.53;;
4272;SDS011;63887;53.656;9.810;2022-10-31T05:24:45;180.77;;;54.47;;
4272;SDS011;63887;53.656;9.810;2022-10-31T05:27:12;171.67;;;55.47;;
4272;SDS011;63887;53.656;9.810;2022-10-31T05:29:40;235.97;;;54.40;;
4272;SDS011;63887;53.656;9.810;2022-10-31T05:32:06;186.30;;;49.77;;
4272;SDS011;63887;53.656;9.810;2022-10-31T05:34:32;191.07;;;52.90;;
4272;SDS011;63887;53.656;9.810;2022-10-31T05:36:59;183.27;;;53.07;;
4272;SDS011;63887;53.656;9.810;2022-10-31T05:39:25;196.27;;;50.50;;
4272;SDS011;63887;53.656;9.810;2022-10-31T05:41:52;189.77;;;51.17;;
4272;SDS011;63887;53.656;9.810;2022-10-31T05:44:18;187.97;;;47.47;;
4272;SDS011;63887;53.656;9.810;2022-10-31T05:46:46;269.30;;;53.17;;
4272;SDS011;63887;53.656;9.810;2022-10-31T05:49:13;212.40;;;49.87;;
4272;SDS011;63887;53.656;9.810;2022-10-31T05:51:39;233.70;;;53.57;;
4272;SDS011;63887;53.656;9.810;2022-10-31T05:54:06;147.40;;;42.70;;
4272;SDS011;63887;53.656;9.810;2022-10-31T05:56:32;301.37;;;51.97;;
4272;SDS011;63887;53.656;9.810;2022-10-31T05:58:59;169.37;;;49.13;;
4272;SDS011;63887;53.656;9.810;2022-10-31T06:01:25;184.53;;;46.10;;
4272;SDS011;63887;53.656;9.810;2022-10-31T06:03:53;175.70;;;47.03;;
4272;SDS011;63887;53.656;9.810;2022-10-31T06:06:19;166.60;;;46.90;;
4272;SDS011;63887;53.656;9.810;2022-10-31T06:08:46;295.80;;;49.90;;
4272;SDS011;63887;53.656;9.810;2022-10-31T06:11:12;208.93;;;48.23;;
4272;SDS011;63887;53.656;9.810;2022-10-31T06:13:39;232.20;;;48.17;;
4272;SDS011;63887;53.656;9.810;2022-10-31T06:16:05;158.90;;;45.67;;
4272;SDS011;63887;53.656;9.810;2022-10-31T06:18:32;167.83;;;47.10;;
4272;SDS011;63887;53.656;9.810;2022-10-31T06:20:59;182.43;;;46.10;;
4272;SDS011;63887;53.656;9.810;2022-10-31T06:23:26;152.97;;;45.30;;
4272;SDS011;63887;53.656;9.810;2022-10-31T06:25:52;181.17;;;50.00;;
4272;SDS011;63887;53.656;9.810;2022-10-31T06:28:20;162.00;;;45.47;;
4272;SDS011;63887;53.656;9.810;2022-10-31T06:30:46;183.30;;;45.27;;
4272;SDS011;63887;53.656;9.810;2022-10-31T06:33:13;131.33;;;44.80;;
4272;SDS011;63887;53.656;9.810;2022-10-31T06:35:44;137.73;;;46.67;;
4272;SDS011;63887;53.656;9.810;2022-10-31T06:38:13;111.07;;;43.67;;
4272;SDS011;63887;53.656;9.810;2022-10-31T06:40:39;126.47;;;44.30;;
4272;SDS011;63887;53.656;9.810;2022-10-31T06:43:06;138.23;;;44.70;;
4272;SDS011;63887;53.656;9.810;2022-10-31T06:45:32;166.00;;;46.80;;
4272;SDS011;63887;53.656;9.810;2022-10-31T06:47:58;136.60;;;44.73;;
4272;SDS011;63887;53.656;9.810;2022-10-31T06:50:25;152.20;;;44.00;;
4272;SDS011;63887;53.656;9.810;2022-10-31T06:52:51;128.47;;;45.20;;
4272;SDS011;63887;53.656;9.810;2022-10-31T06:55:19;124.43;;;43.60;;
4272;SDS011;63887;53.656;9.810;2022-10-31T06:57:50;123.20;;;43.43;;
4272;SDS011;63887;53.656;9.810;2022-10-31T07:00:17;113.10;;;41.83;;
4272;SDS011;63887;53.656;9.810;2022-10-31T07:02:43;151.33;;;43.80;;
4272;SDS011;63887;53.656;9.810;2022-10-31T07:05:18;105.43;;;40.37;;
4272;SDS011;63887;53.656;9.810;2022-10-31T07:07:44;121.83;;;41.60;;
4272;SDS011;63887;53.656;9.810;2022-10-31T07:10:11;165.97;;;40.90;;
4272;SDS011;63887;53.656;9.810;2022-10-31T07:12:38;117.63;;;36.40;;
4272;SDS011;63887;53.656;9.810;2022-10-31T07:15:06;95.17;;;37.70;;
4272;SDS011;63887;53.656;9.810;2022-10-31T07:17:33;101.60;;;37.70;;
4272;SDS011;63887;53.656;9.810;2022-10-31T07:19:59;93.50;;;35.50;;
4272;SDS011;63887;53.656;9.810;2022-10-31T07:22:31;107.47;;;36.60;;
4272;SDS011;63887;53.656;9.810;2022-10-31T07:24:58;136.20;;;37.97;;
4272;SDS011;63887;53.656;9.810;2022-10-31T07:27:24;106.13;;;36.97;;
4272;SDS011;63887;53.656;9.810;2022-10-31T07:29:52;97.10;;;35.03;;
4272;SDS011;63887;53.656;9.810;2022-10-31T07:32:19;116.80;;;35.17;;
4272;SDS011;63887;53.656;9.810;2022-10-31T07:34:45;110.80;;;33.00;;
4272;SDS011;63887;53.656;9.810;2022-10-31T07:37:11;101.70;;;32.00;;
4272;SDS011;63887;53.656;9.810;2022-10-31T07:39:38;93.07;;;33.73;;
4272;SDS011;63887;53.656;9.810;2022-10-31T07:42:04;103.80;;;32.13;;
4272;SDS011;63887;53.656;9.810;2022-10-31T07:44:31;132.43;;;34.87;;
4272;SDS011;63887;53.656;9.810;2022-10-31T07:46:58;92.23;;;34.20;;
4272;SDS011;63887;53.656;9.810;2022-10-31T07:49:25;77.80;;;33.20;;
4272;SDS011;63887;53.656;9.810;2022-10-31T07:51:51;76.93;;;30.93;;
4272;SDS011;63887;53.656;9.810;2022-10-31T07:54:18;78.63;;;30.60;;
4272;SDS011;63887;53.656;9.810;2022-10-31T07:56:44;79.67;;;29.47;;
4272;SDS011;63887;53.656;9.810;2022-10-31T07:59:12;87.60;;;29.40;;
4272;SDS011;63887;53.656;9.810;2022-10-31T08:01:38;70.47;;;30.70;;
4272;SDS011;63887;53.656;9.810;2022-10-31T08:04:06;90.20;;;34.53;;
4272;SDS011;63887;53.656;9.810;2022-10-31T08:06:33;58.17;;;32.63;;
4272;SDS011;63887;53.656;9.810;2022-10-31T08:09:00;118.50;;;40.00;;
4272;SDS011;63887;53.656;9.810;2022-10-31T08:11:26;77.27;;;35.00;;
4272;SDS011;63887;53.656;9.810;2022-10-31T08:13:53;82.57;;;33.33;;
4272;SDS011;63887;53.656;9.810;2022-10-31T08:16:19;103.27;;;31.60;;
4272;SDS011;63887;53.656;9.810;2022-10-31T08:18:45;58.37;;;29.33;;
4272;SDS011;63887;53.656;9.810;2022-10-31T08:21:14;83.03;;;33.07;;
4272;SDS011;63887;53.656;9.810;2022-10-31T08:23:40;69.43;;;33.43;;
4272;SDS011;63887;53.656;9.810;2022-10-31T08:26:06;64.17;;;28.27;;
4272;SDS011;63887;53.656;9.810;2022-10-31T08:28:33;59.13;;;29.50;;
4272;SDS011;63887;53.656;9.810;2022-10-31T08:30:59;74.30;;;30.30;;
4272;SDS011;63887;53.656;9.810;2022-10-31T08:33:26;52.63;;;27.57;;
4272;SDS011;63887;53.656;9.810;2022-10-31T08:35:52;120.10;;;29.03;;
4272;SDS011;63887;53.656;9.810;2022-10-31T08:38:20;70.87;;;30.47;;
4272;SDS011;63887;53.656;9.810;2022-10-31T08:40:48;58.77;;;26.40;;
4272;SDS011;63887;53.656;9.810;2022-10-31T08:43:15;60.40;;;29.77;;
4272;SDS011;63887;53.656;9.810;2022-10-31T08:45:42;54.63;;;26.80;;
4272;SDS011;63887;53.656;9.810;2022-10-31T08:48:11;59.27;;;28.70;;
4272;SDS011;63887;53.656;9.810;2022-10-31T08:50:38;50.83;;;28.00;;
4272;SDS011;63887;53.656;9.810;2022-10-31T08:53:06;57.20;;;28.40;;
4272;SDS011;63887;53.656;9.810;2022-10-31T08:55:35;59.83;;;28.77;;
4272;SDS011;63887;53.656;9.810;2022-10-31T08:58:02;48.53;;;29.50;;
4272;SDS011;63887;53.656;9.810;2022-10-31T09:00:30;48.50;;;28.80;;
4272;SDS011;63887;53.656;9.810;2022-10-31T09:02:57;47.63;;;28.13;;
4272;SDS011;63887;53.656;9.810;2022-10-31T09:05:24;43.73;;;27.10;;
4272;SDS011;63887;53.656;9.810;2022-10-31T09:07:54;49.50;;;26.57;;
4272;SDS011;63887;53.656;9.810;2022-10-31T09:10:22;44.90;;;27.23;;
4272;SDS011;63887;53.656;9.810;2022-10-31T09:12:55;44.67;;;28.50;;
4272;SDS011;63887;53.656;9.810;2022-10-31T09:15:22;55.90;;;27.00;;
4272;SDS011;63887;53.656;9.810;2022-10-31T09:17:48;40.07;;;26.60;;
4272;SDS011;63887;53.656;9.810;2022-10-31T09:20:15;52.40;;;27.50;;
4272;SDS011;63887;53.656;9.810;2022-10-31T09:22:42;43.10;;;28.60;;
4272;SDS011;63887;53.656;9.810;2022-10-31T09:25:08;57.03;;;28.93;;
4272;SDS011;63887;53.656;9.810;2022-10-31T09:27:35;48.10;;;29.13;;
4272;SDS011;63887;53.656;9.810;2022-10-31T09:30:02;41.47;;;27.63;;
4272;SDS011;63887;53.656;9.810;2022-10-31T09:32:29;48.50;;;27.97;;
4272;SDS011;63887;53.656;9.810;2022-10-31T09:34:56;46.70;;;29.20;;
4272;SDS011;63887;53.656;9.810;2022-10-31T09:37:22;48.63;;;27.63;;
4272;SDS011;63887;53.656;9.810;2022-10-31T09:39:49;46.10;;;26.10;;
4272;SDS011;63887;53.656;9.810;2022-10-31T09:45:19;48.50;;;25.50;;
4272;SDS011;63887;53.656;9.810;2022-10-31T09:47:55;36.07;;;25.33;;
4272;SDS011;63887;53.656;9.810;2022-10-31T09:50:34;41.13;;;25.90;;
4272;SDS011;63887;53.656;9.810;2022-10-31T09:53:08;42.03;;;24.33;;
4272;SDS011;63887;53.656;9.810;2022-10-31T09:55:40;44.87;;;22.17;;
4272;SDS011;63887;53.656;9.810;2022-10-31T09:58:12;43.67;;;22.60;;
4272;SDS011;63887;53.656;9.810;2022-10-31T10:00:43;39.90;;;21.90;;
4272;SDS011;63887;53.656;9.810;2022-10-31T10:03:11;31.80;;;22.20;;
4272;SDS011;63887;53.656;9.810;2022-10-31T10:05:49;30.27;;;20.87;;
4272;SDS011;63887;53.656;9.810;2022-10-31T10:08:32;45.80;;;22.13;;
4272;SDS011;63887;53.656;9.810;2022-10-31T10:11:02;35.77;;;19.80;;
4272;SDS011;63887;53.656;9.810;2022-10-31T10:13:44;27.07;;;20.37;;
4272;SDS011;63887;53.656;9.810;2022-10-31T10:16:26;33.30;;;19.93;;
4272;SDS011;63887;53.656;9.810;2022-10-31T10:19:07;42.97;;;22.03;;
4272;SDS011;63887;53.656;9.810;2022-10-31T10:21:45;36.60;;;20.13;;
4272;SDS011;63887;53.656;9.810;2022-10-31T10:24:35;30.27;;;19.80;;
4272;SDS011;63887;53.656;9.810;2022-10-31T10:27:17;42.83;;;22.00;;
4272;SDS011;63887;53.656;9.810;2022-10-31T10:29:50;35.47;;;21.00;;
4272;SDS011;63887;53.656;9.810;2022-10-31T10:32:26;32.37;;;21.30;;
4272;SDS011;63887;53.656;9.810;2022-10-31T10:34:56;33.20;;;20.90;;
4272;SDS011;63887;53.656;9.810;2022-10-31T10:37:28;31.53;;;20.63;;
4272;SDS011;63887;53.656;9.810;2022-10-31T10:40:00;35.17;;;19.93;;
4272;SDS011;63887;53.656;9.810;2022-10-31T10:42:33;35.33;;;20.43;;
4272;SDS011;63887;53.656;9.810;2022-10-31T10:45:19;28.13;;;19.77;;
4272;SDS011;63887;53.656;9.810;2022-10-31T10:48:07;38.00;;;22.47;;
4272;SDS011;63887;53.656;9.810;2022-10-31T10:50:41;37.00;;;21.47;;
4272;SDS011;63887;53.656;9.810;2022-10-31T10:56:15;40.00;;;21.27;;
4272;SDS011;63887;53.656;9.810;2022-10-31T10:58:46;29.23;;;21.50;;
4272;SDS011;63887;53.656;9.810;2022-10-31T11:01:14;27.33;;;19.73;;
4272;SDS011;63887;53.656;9.810;2022-10-31T11:03:42;27.50;;;18.97;;
4272;SDS011;63887;53.656;9.810;2022-10-31T11:06:18;30.57;;;19.57;;
4272;SDS011;63887;53.656;9.810;2022-10-31T11:08:50;27.30;;;17.23;;
4272;SDS011;63887;53.656;9.810;2022-10-31T11:11:20;30.33;;;18.77;;
4272;SDS011;63887;53.656;9.810;2022-10-31T11:13:52;30.63;;;20.30;;
4272;SDS011;63887;53.656;9.810;2022-10-31T11:16:28;33.43;;;17.40;;
4272;SDS011;63887;53.656;9.810;2022-10-31T11:19:06;25.07;;;17.83;;
4272;SDS011;63887;53.656;9.810;2022-10-31T11:21:34;25.57;;;18.53;;
4272;SDS011;63887;53.656;9.810;2022-10-31T11:24:03;21.27;;;17.10;;
4272;SDS011;63887;53.656;9.810;2022-10-31T11:26:38;28.00;;;20.77;;
4272;SDS011;63887;53.656;9.810;2022-10-31T11:29:10;28.07;;;19.60;;
4272;SDS011;63887;53.656;9.810;2022-10-31T11:31:40;36.10;;;21.57;;
4272;SDS011;63887;53.656;9.810;2022-10-31T11:34:12;32.17;;;20.70;;
4272;SDS011;63887;53.656;9.810;2022-10-31T11:36:42;30.67;;;19.30;;
4272;SDS011;63887;53.656;9.810;2022-10-31T11:39:14;38.73;;;23.43;;
4272;SDS011;63887;53.656;9.810;2022-10-31T11:41:44;38.53;;;23.43;;
4272;SDS011;63887;53.656;9.810;2022-10-31T11:44:12;38.10;;;23.90;;
4272;SDS011;63887;53.656;9.810;2022-10-31T11:46:42;36.87;;;21.10;;
4272;SDS011;63887;53.656;9.810;2022-10-31T11:49:14;25.90;;;19.63;;
4272;SDS011;63887;53.656;9.810;2022-10-31T11:51:46;32.50;;;20.20;;
4272;SDS011;63887;53.656;9.810;2022-10-31T11:54:18;40.40;;;21.23;;
4272;SDS011;63887;53.656;9.810;2022-10-31T11:56:48;34.83;;;21.17;;
4272;SDS011;63887;53.656;9.810;2022-10-31T11:59:15;25.50;;;18.50;;
4272;SDS011;63887;53.656;9.810;2022-10-31T12:01:52;25.37;;;18.37;;
4272;SDS011;63887;53.656;9.810;2022-10-31T12:04:23;27.77;;;19.27;;
4272;SDS011;63887;53.656;9.810;2022-10-31T12:06:57;26.00;;;17.80;;
4272;SDS011;63887;53.656;9.810;2022-10-31T12:09:25;28.20;;;16.47;;
4272;SDS011;63887;53.656;9.810;2022-10-31T12:12:02;26.47;;;15.90;;
4272;SDS011;63887;53.656;9.810;2022-10-31T12:14:37;26.07;;;16.60;;
4272;SDS011;63887;53.656;9.810;2022-10-31T12:17:15;26.70;;;15.57;;
4272;SDS011;63887;53.656;9.810;2022-10-31T12:19:53;20.83;;;15.43;;
4272;SDS011;63887;53.656;9.810;2022-10-31T12:22:28;26.47;;;15.50;;
4272;SDS011;63887;53.656;9.810;2022-10-31T12:25:11;22.27;;;14.33;;
4272;SDS011;63887;53.656;9.810;2022-10-31T12:28:02;21.07;;;16.30;;
4272;SDS011;63887;53.656;9.810;2022-10-31T12:30:42;25.90;;;15.80;;
4272;SDS011;63887;53.656;9.810;2022-10-31T12:33:22;26.83;;;16.27;;
4272;SDS011;63887;53.656;9.810;2022-10-31T12:36:04;17.40;;;14.77;;
4272;SDS011;63887;53.656;9.810;2022-10-31T12:38:44;17.30;;;14.17;;
4272;SDS011;63887;53.656;9.810;2022-10-31T12:41:27;17.93;;;14.20;;
4272;SDS011;63887;53.656;9.810;2022-10-31T12:44:05;22.13;;;15.97;;
4272;SDS011;63887;53.656;9.810;2022-10-31T12:46:37;15.43;;;13.87;;
4272;SDS011;63887;53.656;9.810;2022-10-31T12:52:17;22.27;;;17.03;;
4272;SDS011;63887;53.656;9.810;2022-10-31T12:55:01;26.40;;;17.73;;
4272;SDS011;63887;53.656;9.810;2022-10-31T12:57:42;22.80;;;17.80;;
4272;SDS011;63887;53.656;9.810;2022-10-31T13:00:14;26.10;;;16.77;;
4272;SDS011;63887;53.656;9.810;2022-10-31T13:02:43;17.27;;;15.23;;
4272;SDS011;63887;53.656;9.810;2022-10-31T13:05:18;24.20;;;17.73;;
4272;SDS011;63887;53.656;9.810;2022-10-31T13:07:52;28.33;;;16.80;;
4272;SDS011;63887;53.656;9.810;2022-10-31T13:10:22;28.87;;;17.70;;
4272;SDS011;63887;53.656;9.810;2022-10-31T13:12:53;32.33;;;20.90;;
4272;SDS011;63887;53.656;9.810;2022-10-31T13:15:26;35.30;;;21.20;;
4272;SDS011;63887;53.656;9.810;2022-10-31T13:17:56;39.93;;;23.13;;
4272;SDS011;63887;53.656;9.810;2022-10-31T13:20:26;31.17;;;21.87;;
4272;SDS011;63887;53.656;9.810;2022-10-31T13:23:00;37.10;;;25.20;;
4272;SDS011;63887;53.656;9.810;2022-10-31T13:25:33;40.80;;;25.03;;
4272;SDS011;63887;53.656;9.810;2022-10-31T13:28:09;42.90;;;26.93;;
4272;SDS011;63887;53.656;9.810;2022-10-31T13:30:47;40.40;;;26.70;;
4272;SDS011;63887;53.656;9.810;2022-10-31T13:33:15;48.30;;;28.17;;
4272;SDS011;63887;53.656;9.810;2022-10-31T13:35:46;55.30;;;29.07;;
4272;SDS011;63887;53.656;9.810;2022-10-31T13:38:22;48.10;;;28.23;;
4272;SDS011;63887;53.656;9.810;2022-10-31T13:40:56;52.77;;;29.30;;
4272;SDS011;63887;53.656;9.810;2022-10-31T13:43:28;36.37;;;25.43;;
4272;SDS011;63887;53.656;9.810;2022-10-31T13:46:01;41.43;;;26.23;;
4272;SDS011;63887;53.656;9.810;2022-10-31T13:48:38;46.20;;;28.07;;
4272;SDS011;63887;53.656;9.810;2022-10-31T13:51:08;46.13;;;28.87;;
4272;SDS011;63887;53.656;9.810;2022-10-31T13:53:38;53.13;;;30.57;;
4272;SDS011;63887;53.656;9.810;2022-10-31T13:56:22;44.73;;;29.00;;
4272;SDS011;63887;53.656;9.810;2022-10-31T13:58:57;64.23;;;31.40;;
4272;SDS011;63887;53.656;9.810;2022-10-31T14:01:26;50.23;;;28.97;;
4272;SDS011;63887;53.656;9.810;2022-10-31T14:03:58;53.27;;;29.33;;
4272;SDS011;63887;53.656;9.810;2022-10-31T14:06:36;53.20;;;33.40;;
4272;SDS011;63887;53.656;9.810;2022-10-31T14:09:14;51.10;;;32.93;;
4272;SDS011;63887;53.656;9.810;2022-10-31T14:11:45;53.23;;;29.23;;
4272;SDS011;63887;53.656;9.810;2022-10-31T14:14:13;62.10;;;33.77;;
4272;SDS011;63887;53.656;9.810;2022-10-31T14:16:41;62.07;;;37.57;;
4272;SDS011;63887;53.656;9.810;2022-10-31T14:19:13;66.37;;;35.73;;
4272;SDS011;63887;53.656;9.810;2022-10-31T14:21:43;63.30;;;35.63;;
4272;SDS011;63887;53.656;9.810;2022-10-31T14:24:16;55.47;;;35.47;;
4272;SDS011;63887;53.656;9.810;2022-10-31T14:26:58;66.37;;;34.30;;
4272;SDS011;63887;53.656;9.810;2022-10-31T14:29:26;54.33;;;33.67;;
4272;SDS011;63887;53.656;9.810;2022-10-31T14:31:54;63.60;;;35.30;;
4272;SDS011;63887;53.656;9.810;2022-10-31T14:34:24;56.20;;;35.10;;
4272;SDS011;63887;53.656;9.810;2022-10-31T14:37:03;56.47;;;36.07;;
4272;SDS011;63887;53.656;9.810;2022-10-31T14:39:44;61.73;;;34.70;;
4272;SDS011;63887;53.656;9.810;2022-10-31T14:42:26;60.83;;;36.20;;
4272;SDS011;63887;53.656;9.810;2022-10-31T14:45:21;70.63;;;38.67;;
4272;SDS011;63887;53.656;9.810;2022-10-31T14:47:57;64.90;;;38.70;;
4272;SDS011;63887;53.656;9.810;2022-10-31T14:50:37;86.60;;;42.17;;
4272;SDS011;63887;53.656;9.810;2022-10-31T14:53:11;68.50;;;36.37;;
4272;SDS011;63887;53.656;9.810;2022-10-31T14:55:46;71.53;;;36.73;;
4272;SDS011;63887;53.656;9.810;2022-10-31T14:58:16;60.63;;;37.07;;